Time,TemperatureF,DewpointF,PressureIn,WindDirection,WindDirectionDegrees,WindSpeedMPH,WindSpeedGustMPH,Humidity,HourlyPrecipIn,Conditions,Clouds,dailyrainin,SoftwareType,DateUTC
2013-08-02 00:03:00,53.5,50.6,29.95,NE,49,0.0,0.0,90,0.00,,---,0.00,VWS V14.01,2013-08-02 07:03:00,
2013-08-02 00:08:00,53.3,50.5,29.95,NE,49,0.0,0.0,90,0.00,,---,0.00,VWS V14.01,2013-08-02 07:08:00,
2013-08-02 00:13:00,53.2,50.7,29.95,NE,49,0.0,0.0,91,0.00,,---,0.00,VWS V14.01,2013-08-02 07:13:00,
2013-08-02 00:18:00,53.1,50.5,29.95,NE,49,0.0,0.0,91,0.00,,---,0.00,VWS V14.01,2013-08-02 07:18:00,
2013-08-02 00:23:00,52.9,50.3,29.94,NE,49,0.0,0.0,91,0.00,,---,0.00,VWS V14.01,2013-08-02 07:23:00,
2013-08-02 00:28:00,52.9,50.6,29.94,NE,49,0.0,0.0,92,0.00,,---,0.00,VWS V14.01,2013-08-02 07:28:00,
2013-08-02 00:33:00,52.8,50.5,29.94,NE,49,0.0,0.0,92,0.00,,---,0.00,VWS V14.01,2013-08-02 07:33:00,
2013-08-02 00:38:00,52.6,50.3,29.94,NE,49,0.0,0.0,92,0.00,,---,0.00,VWS V14.01,2013-08-02 07:38:00,
2013-08-02 00:43:00,52.5,50.2,29.94,NE,49,0.0,0.0,92,0.00,,---,0.00,VWS V14.01,2013-08-02 07:43:00,
2013-08-02 00:48:00,52.5,50.2,29.94,NE,49,0.0,0.0,92,0.00,,---,0.00,VWS V14.01,2013-08-02 07:48:00,
2013-08-02 00:53:00,52.3,50.0,29.94,NE,49,0.0,0.0,92,0.00,,---,0.00,VWS V14.01,2013-08-02 07:53:00,
2013-08-02 00:58:00,52.2,50.0,29.94,NE,49,0.0,0.0,92,0.00,,---,0.00,VWS V14.01,2013-08-02 07:58:00,
2013-08-02 01:03:00,52.0,50.0,29.94,NE,49,0.0,0.0,93,0.00,,---,0.00,VWS V14.01,2013-08-02 08:03:00,
2013-08-02 01:08:00,52.0,50.0,29.93,NE,49,0.0,0.0,93,0.00,,---,0.00,VWS V14.01,2013-08-02 08:08:00,
2013-08-02 01:13:00,51.7,49.8,29.93,NE,49,0.0,0.0,93,0.00,,---,0.00,VWS V14.01,2013-08-02 08:13:00,
2013-08-02 01:18:00,51.7,50.0,29.93,NE,49,0.0,1.0,94,0.00,,---,0.00,VWS V14.01,2013-08-02 08:18:00,
2013-08-02 01:23:00,51.9,50.2,29.93,NE,49,0.0,1.0,94,0.00,,---,0.00,VWS V14.01,2013-08-02 08:23:00,
2013-08-02 01:28:00,52.0,50.3,29.93,NE,49,0.0,1.0,94,0.00,,---,0.00,VWS V14.01,2013-08-02 08:28:00,
2013-08-02 01:33:00,52.2,50.5,29.93,NE,49,0.0,1.0,94,0.00,,---,0.00,VWS V14.01,2013-08-02 08:33:00,
2013-08-02 01:38:00,52.0,50.3,29.93,NE,49,0.0,0.0,94,0.00,,---,0.00,VWS V14.01,2013-08-02 08:38:00,
2013-08-02 01:44:00,51.9,50.2,29.93,NE,49,0.0,0.0,94,0.00,,---,0.00,VWS V14.01,2013-08-02 08:44:00,
2013-08-02 01:49:00,51.7,50.0,29.93,NE,49,0.0,0.0,94,0.00,,---,0.00,VWS V14.01,2013-08-02 08:49:00,
2013-08-02 01:54:00,51.6,49.9,29.92,NE,49,0.0,0.0,94,0.00,,---,0.00,VWS V14.01,2013-08-02 08:54:00,
2013-08-02 01:59:00,51.4,49.7,29.92,NE,49,0.0,0.0,94,0.00,,---,0.00,VWS V14.01,2013-08-02 08:59:00,
2013-08-02 02:04:00,51.4,49.7,29.92,NE,49,0.0,0.0,94,0.00,,---,0.00,VWS V14.01,2013-08-02 09:04:00,
2013-08-02 02:09:00,51.4,49.7,29.92,NE,49,0.0,0.0,94,0.00,,---,0.00,VWS V14.01,2013-08-02 09:09:00,
2013-08-02 02:14:00,51.3,49.6,29.92,NE,49,0.0,0.0,94,0.00,,---,0.00,VWS V14.01,2013-08-02 09:14:00,
2013-08-02 02:19:00,51.1,49.4,29.92,NE,49,0.0,0.0,94,0.00,,---,0.00,VWS V14.01,2013-08-02 09:19:00,
2013-08-02 02:24:00,51.0,49.3,29.92,NE,49,0.0,0.0,94,0.00,,---,0.00,VWS V14.01,2013-08-02 09:24:00,
2013-08-02 02:29:00,50.8,49.1,29.92,NE,49,0.0,0.0,94,0.00,,---,0.00,VWS V14.01,2013-08-02 09:29:00,
2013-08-02 02:34:00,50.8,49.1,29.92,NE,49,0.0,0.0,94,0.00,,---,0.00,VWS V14.01,2013-08-02 09:34:00,
2013-08-02 02:39:00,50.8,49.4,29.92,NE,49,0.0,0.0,95,0.00,,---,0.00,VWS V14.01,2013-08-02 09:39:00,
2013-08-02 02:44:00,50.8,49.4,29.92,NE,49,0.0,0.0,95,0.00,,---,0.00,VWS V14.01,2013-08-02 09:44:00,
2013-08-02 02:49:00,50.7,49.0,29.92,NE,49,0.0,0.0,94,0.00,,---,0.00,VWS V14.01,2013-08-02 09:49:00,
2013-08-02 02:54:00,50.7,49.3,29.92,NE,49,0.0,0.0,95,0.00,,---,0.00,VWS V14.01,2013-08-02 09:54:00,
2013-08-02 02:59:00,50.5,49.1,29.92,NE,49,0.0,0.0,95,0.00,,---,0.00,VWS V14.01,2013-08-02 09:59:00,
2013-08-02 03:05:00,50.5,49.1,29.92,NE,49,0.0,0.0,95,0.00,,---,0.00,VWS V14.01,2013-08-02 10:05:00,
2013-08-02 03:10:00,50.7,49.3,29.92,NE,49,0.0,0.0,95,0.00,,---,0.00,VWS V14.01,2013-08-02 10:10:00,
2013-08-02 03:15:00,50.7,49.3,29.92,NE,49,0.0,0.0,95,0.00,,---,0.00,VWS V14.01,2013-08-02 10:15:00,
2013-08-02 03:20:00,50.5,49.1,29.92,NE,49,0.0,0.0,95,0.00,,---,0.00,VWS V14.01,2013-08-02 10:20:00,
2013-08-02 03:25:00,50.4,49.0,29.92,NE,49,0.0,0.0,95,0.00,,---,0.00,VWS V14.01,2013-08-02 10:25:00,
2013-08-02 03:30:00,50.2,48.8,29.92,NE,49,0.0,0.0,95,0.00,,---,0.00,VWS V14.01,2013-08-02 10:30:00,
2013-08-02 03:35:00,50.2,48.8,29.93,NE,49,0.0,0.0,95,0.00,,---,0.00,VWS V14.01,2013-08-02 10:35:00,
2013-08-02 03:40:00,49.9,48.5,29.93,NE,49,0.0,0.0,95,0.00,,---,0.00,VWS V14.01,2013-08-02 10:40:00,
2013-08-02 03:45:00,49.8,48.4,29.93,NE,49,0.0,0.0,95,0.00,,---,0.00,VWS V14.01,2013-08-02 10:45:00,
2013-08-02 03:50:00,49.6,48.2,29.93,NE,49,0.0,0.0,95,0.00,,---,0.00,VWS V14.01,2013-08-02 10:50:00,
2013-08-02 03:55:00,49.5,48.1,29.93,NE,49,0.0,0.0,95,0.00,,---,0.00,VWS V14.01,2013-08-02 10:55:00,
2013-08-02 04:00:00,49.6,48.2,29.93,NE,49,0.0,0.0,95,0.00,,---,0.00,VWS V14.01,2013-08-02 11:00:00,
2013-08-02 04:05:00,50.1,49.0,29.93,NE,49,0.0,0.0,96,0.00,,---,0.00,VWS V14.01,2013-08-02 11:05:00,
2013-08-02 04:10:00,50.5,49.4,29.93,NE,49,0.0,0.0,96,0.00,,---,0.00,VWS V14.01,2013-08-02 11:10:00,
2013-08-02 04:15:00,50.4,49.0,29.93,NE,49,0.0,0.0,95,0.00,,---,0.00,VWS V14.01,2013-08-02 11:15:00,
2013-08-02 04:20:00,50.4,49.3,29.93,NE,49,0.0,0.0,96,0.00,,---,0.00,VWS V14.01,2013-08-02 11:20:00,
2013-08-02 04:25:00,50.7,49.6,29.93,NE,49,0.0,0.0,96,0.00,,---,0.00,VWS V14.01,2013-08-02 11:25:00,
2013-08-02 04:30:00,51.0,49.9,29.93,NE,49,0.0,0.0,96,0.00,,---,0.00,VWS V14.01,2013-08-02 11:30:00,
2013-08-02 04:35:00,51.1,50.0,29.93,NE,49,0.0,0.0,96,0.00,,---,0.00,VWS V14.01,2013-08-02 11:35:00,
2013-08-02 04:40:00,51.3,50.2,29.93,NE,49,0.0,0.0,96,0.00,,---,0.00,VWS V14.01,2013-08-02 11:40:00,
2013-08-02 04:45:00,51.4,50.3,29.93,NE,49,0.0,0.0,96,0.00,,---,0.00,VWS V14.01,2013-08-02 11:45:00,
2013-08-02 04:50:00,51.7,50.6,29.94,NE,49,0.0,0.0,96,0.00,,---,0.00,VWS V14.01,2013-08-02 11:50:00,
2013-08-02 04:55:00,51.9,50.8,29.94,NE,49,0.0,0.0,96,0.00,,---,0.00,VWS V14.01,2013-08-02 11:55:00,
2013-08-02 05:01:00,52.0,50.9,29.94,NE,49,0.0,0.0,96,0.00,,---,0.00,VWS V14.01,2013-08-02 12:01:00,
2013-08-02 05:06:00,52.2,51.1,29.93,NE,49,0.0,0.0,96,0.00,,---,0.00,VWS V14.01,2013-08-02 12:06:00,
2013-08-02 05:11:00,52.2,51.1,29.93,NE,49,0.0,0.0,96,0.00,,---,0.00,VWS V14.01,2013-08-02 12:11:00,
2013-08-02 05:16:00,52.5,51.0,29.93,NE,49,0.0,-999.0,96,-99.99,,,0.00,weatherlink.com 1.10,2013-08-02 12:16:00,
2013-08-02 05:21:00,52.6,51.5,29.93,NE,49,0.0,0.0,96,0.00,,---,0.00,VWS V14.01,2013-08-02 12:21:00,
2013-08-02 05:26:00,52.8,51.7,29.93,NE,49,0.0,0.0,96,0.00,,---,0.00,VWS V14.01,2013-08-02 12:26:00,
2013-08-02 05:31:00,52.9,51.8,29.93,NE,49,0.0,0.0,96,0.00,,---,0.00,VWS V14.01,2013-08-02 12:31:00,
2013-08-02 05:36:00,53.2,52.4,29.93,NE,49,0.0,0.0,97,0.00,,---,0.00,VWS V14.01,2013-08-02 12:36:00,
2013-08-02 05:41:00,53.3,52.5,29.93,NE,49,0.0,0.0,97,0.00,,---,0.00,VWS V14.01,2013-08-02 12:41:00,
2013-08-02 05:46:00,53.5,52.7,29.93,NE,49,0.0,0.0,97,0.00,,---,0.00,VWS V14.01,2013-08-02 12:46:00,
2013-08-02 05:51:00,53.6,52.8,29.92,NE,49,0.0,0.0,97,0.00,,---,0.00,VWS V14.01,2013-08-02 12:51:00,
2013-08-02 05:56:00,53.9,53.1,29.92,NE,49,0.0,0.0,97,0.00,,---,0.00,VWS V14.01,2013-08-02 12:56:00,
2013-08-02 06:01:00,53.9,53.1,29.92,NE,49,0.0,0.0,97,0.00,,---,0.00,VWS V14.01,2013-08-02 13:01:00,
2013-08-02 06:06:00,54.1,53.3,29.93,NE,49,0.0,0.0,97,0.00,,---,0.00,VWS V14.01,2013-08-02 13:06:00,
2013-08-02 06:11:00,54.2,53.4,29.93,WSW,241,0.0,4.0,97,0.00,,---,0.00,VWS V14.01,2013-08-02 13:11:00,
2013-08-02 06:16:00,54.4,53.6,29.93,WSW,241,0.0,4.0,97,0.00,,---,0.00,VWS V14.01,2013-08-02 13:16:00,
2013-08-02 06:21:00,54.4,53.6,29.94,WSW,241,0.0,4.0,97,0.00,,---,0.00,VWS V14.01,2013-08-02 13:21:00,
2013-08-02 06:26:00,54.5,53.7,29.94,WSW,241,0.0,4.0,97,0.00,,---,0.00,VWS V14.01,2013-08-02 13:26:00,
2013-08-02 06:31:00,54.5,53.7,29.94,WSW,241,0.0,4.0,97,0.00,,---,0.00,VWS V14.01,2013-08-02 13:31:00,
2013-08-02 06:37:00,54.5,53.7,29.94,WSW,241,0.0,0.0,97,0.00,,---,0.00,VWS V14.01,2013-08-02 13:37:00,
2013-08-02 06:42:00,54.5,53.7,29.94,WSW,241,0.0,0.0,97,0.00,,---,0.00,VWS V14.01,2013-08-02 13:42:00,
2013-08-02 06:46:00,54.5,53.7,29.94,SSW,208,0.0,0.0,97,0.00,,---,0.00,VWS V14.01,2013-08-02 13:46:00,
2013-08-02 06:52:00,54.5,53.7,29.94,SSW,208,0.0,0.0,97,0.00,,---,0.00,VWS V14.01,2013-08-02 13:52:00,
2013-08-02 06:57:00,54.5,53.7,29.94,SSW,208,0.0,0.0,97,0.00,,---,0.00,VWS V14.01,2013-08-02 13:57:00,
2013-08-02 07:02:00,54.7,53.9,29.94,SSW,208,0.0,0.0,97,0.00,,---,0.00,VWS V14.01,2013-08-02 14:02:00,
2013-08-02 07:07:00,54.8,54.0,29.94,SSW,208,0.0,0.0,97,0.00,,---,0.00,VWS V14.01,2013-08-02 14:07:00,
2013-08-02 07:12:00,54.8,54.0,29.94,SSW,208,0.0,0.0,97,0.00,,---,0.00,VWS V14.01,2013-08-02 14:12:00,
2013-08-02 07:17:00,55.0,54.2,29.94,SSW,208,0.0,0.0,97,0.00,,---,0.00,VWS V14.01,2013-08-02 14:17:00,
2013-08-02 07:22:00,55.0,54.2,29.94,West,277,0.0,3.0,97,0.00,,---,0.00,VWS V14.01,2013-08-02 14:22:00,
2013-08-02 07:27:00,55.0,53.9,29.94,West,277,0.0,3.0,96,0.00,,---,0.00,VWS V14.01,2013-08-02 14:27:00,
2013-08-02 07:32:00,55.0,53.9,29.94,West,277,0.0,3.0,96,0.00,,---,0.00,VWS V14.01,2013-08-02 14:32:00,
2013-08-02 07:37:00,55.0,53.9,29.95,West,277,0.0,0.0,96,0.00,,---,0.00,VWS V14.01,2013-08-02 14:37:00,
2013-08-02 07:42:00,55.1,54.0,29.95,West,277,0.0,0.0,96,0.00,,---,0.00,VWS V14.01,2013-08-02 14:42:00,
2013-08-02 07:47:00,55.1,54.0,29.95,SSE,150,0.0,0.0,96,0.00,,---,0.00,VWS V14.01,2013-08-02 14:47:00,
2013-08-02 07:52:00,55.1,54.0,29.95,WSW,245,0.0,4.0,96,0.00,,---,0.00,VWS V14.01,2013-08-02 14:52:00,
2013-08-02 07:57:00,55.1,54.0,29.95,SW,222,0.0,4.0,96,0.00,,---,0.00,VWS V14.01,2013-08-02 14:57:00,
2013-08-02 08:02:00,55.1,53.7,29.95,SW,221,1.0,4.0,95,0.00,,---,0.00,VWS V14.01,2013-08-02 15:02:00,
2013-08-02 08:07:00,55.3,53.9,29.95,SW,236,1.0,2.0,95,0.00,,---,0.00,VWS V14.01,2013-08-02 15:07:00,
2013-08-02 08:13:00,55.4,54.0,29.95,SW,236,0.0,3.0,95,0.00,,---,0.00,VWS V14.01,2013-08-02 15:13:00,
2013-08-02 08:18:00,55.6,54.2,29.95,South,190,0.0,3.0,95,0.00,,---,0.00,VWS V14.01,2013-08-02 15:18:00,
2013-08-02 08:23:00,55.9,54.2,29.96,SSW,200,0.0,3.0,94,0.00,,---,0.00,VWS V14.01,2013-08-02 15:23:00,
2013-08-02 08:28:00,55.9,54.2,29.96,SSW,202,0.0,3.0,94,0.00,,---,0.00,VWS V14.01,2013-08-02 15:28:00,
2013-08-02 08:33:00,56.2,54.5,29.96,SSW,202,0.0,3.0,94,0.00,,---,0.00,VWS V14.01,2013-08-02 15:33:00,
2013-08-02 08:38:00,56.3,54.3,29.96,SSW,195,0.0,2.0,93,0.00,,---,0.00,VWS V14.01,2013-08-02 15:38:00,
2013-08-02 08:43:00,56.3,54.0,29.96,SSW,195,0.0,2.0,92,0.00,,---,0.00,VWS V14.01,2013-08-02 15:43:00,
2013-08-02 08:48:00,56.3,54.0,29.96,ENE,69,2.0,4.0,92,0.00,,---,0.00,VWS V14.01,2013-08-02 15:48:00,
2013-08-02 08:53:00,56.3,53.7,29.97,ESE,117,0.0,4.0,91,0.00,,---,0.00,VWS V14.01,2013-08-02 15:53:00,
2013-08-02 08:58:00,56.6,54.0,29.97,ESE,116,0.0,4.0,91,0.00,,---,0.00,VWS V14.01,2013-08-02 15:58:00,
2013-08-02 09:03:00,56.7,53.5,29.97,SW,216,0.0,4.0,89,0.00,,---,0.00,VWS V14.01,2013-08-02 16:03:00,
2013-08-02 09:08:00,56.9,53.7,29.97,SSW,192,0.0,0.0,89,0.00,,---,0.00,VWS V14.01,2013-08-02 16:08:00,
2013-08-02 09:13:00,57.0,53.8,29.97,SSW,193,0.0,0.0,89,0.00,,---,0.00,VWS V14.01,2013-08-02 16:13:00,
2013-08-02 09:18:00,57.3,54.1,29.97,SSW,193,0.0,0.0,89,0.00,,---,0.00,VWS V14.01,2013-08-02 16:18:00,
2013-08-02 09:23:00,57.5,54.0,29.97,SSW,193,0.0,0.0,88,0.00,,---,0.00,VWS V14.01,2013-08-02 16:23:00,
2013-08-02 09:28:00,57.8,54.3,29.97,SSW,193,0.0,0.0,88,0.00,,---,0.00,VWS V14.01,2013-08-02 16:28:00,
2013-08-02 09:33:00,57.8,54.0,29.97,NE,36,0.0,3.0,87,0.00,,---,0.00,VWS V14.01,2013-08-02 16:33:00,
2013-08-02 09:39:00,58.1,54.3,29.97,ESE,121,0.0,0.0,87,0.00,,---,0.00,VWS V14.01,2013-08-02 16:39:00,
2013-08-02 09:44:00,58.3,54.1,29.97,SW,215,2.0,3.0,86,0.00,,---,0.00,VWS V14.01,2013-08-02 16:44:00,
2013-08-02 09:48:00,58.3,54.1,29.97,SW,231,0.0,3.0,86,0.00,,---,0.00,VWS V14.01,2013-08-02 16:48:00,
2013-08-02 09:54:00,58.3,54.1,29.97,SW,236,2.0,3.0,86,0.00,,---,0.00,VWS V14.01,2013-08-02 16:54:00,
2013-08-02 09:59:00,58.4,53.9,29.97,WSW,256,1.0,6.0,85,0.00,,---,0.00,VWS V14.01,2013-08-02 16:59:00,
2013-08-02 10:04:00,58.4,53.9,29.97,WSW,237,0.0,6.0,85,0.00,,---,0.00,VWS V14.01,2013-08-02 17:04:00,
2013-08-02 10:09:00,58.6,54.1,29.97,SW,234,0.0,1.0,85,0.00,,---,0.00,VWS V14.01,2013-08-02 17:09:00,
2013-08-02 10:14:00,58.7,53.9,29.97,SSE,159,0.0,1.0,84,0.00,,---,0.00,VWS V14.01,2013-08-02 17:14:00,
2013-08-02 10:19:00,59.0,54.2,29.97,SW,234,1.0,7.0,84,0.00,,---,0.00,VWS V14.01,2013-08-02 17:19:00,
2013-08-02 10:24:00,59.3,54.2,29.97,SW,229,0.0,7.0,83,0.00,,---,0.00,VWS V14.01,2013-08-02 17:24:00,
2013-08-02 10:29:00,59.6,54.1,29.97,SW,215,1.0,7.0,82,0.00,,---,0.00,VWS V14.01,2013-08-02 17:29:00,
2013-08-02 10:34:00,59.9,54.4,29.97,SW,219,0.0,7.0,82,0.00,,---,0.00,VWS V14.01,2013-08-02 17:34:00,
2013-08-02 10:39:00,60.4,54.5,29.97,WNW,293,4.0,7.0,81,0.00,,---,0.00,VWS V14.01,2013-08-02 17:39:00,
2013-08-02 10:44:00,61.0,54.8,29.97,WNW,292,0.0,7.0,80,0.00,,---,0.00,VWS V14.01,2013-08-02 17:44:00,
2013-08-02 10:49:00,61.5,54.9,29.96,West,266,2.0,7.0,79,0.00,,---,0.00,VWS V14.01,2013-08-02 17:49:00,
2013-08-02 10:54:00,61.8,55.2,29.96,WSW,248,0.0,7.0,79,0.00,,---,0.00,VWS V14.01,2013-08-02 17:54:00,
2013-08-02 10:59:00,62.4,55.5,29.96,SSW,212,3.0,7.0,78,0.00,,---,0.00,VWS V14.01,2013-08-02 17:59:00,
2013-08-02 11:04:00,62.1,54.8,29.96,SW,234,0.0,7.0,77,0.00,,---,0.00,VWS V14.01,2013-08-02 18:04:00,
2013-08-02 11:09:00,62.4,55.1,29.96,SW,234,1.0,7.0,77,0.00,,---,0.00,VWS V14.01,2013-08-02 18:09:00,
2013-08-02 11:14:00,63.4,55.3,29.96,West,269,0.0,7.0,75,0.00,,---,0.00,VWS V14.01,2013-08-02 18:14:00,
2013-08-02 11:19:00,64.7,55.9,29.95,WSW,240,4.0,7.0,73,0.00,,---,0.00,VWS V14.01,2013-08-02 18:19:00,
2013-08-02 11:24:00,65.5,55.9,29.95,SW,222,6.0,7.0,71,0.00,,---,0.00,VWS V14.01,2013-08-02 18:24:00,
2013-08-02 11:29:00,65.3,55.7,29.95,North,350,0.0,7.0,71,0.00,,---,0.00,VWS V14.01,2013-08-02 18:29:00,
2013-08-02 11:34:00,65.5,55.5,29.95,West,277,4.0,7.0,70,0.00,,---,0.00,VWS V14.01,2013-08-02 18:34:00,
2013-08-02 11:39:00,65.8,55.4,29.95,SW,220,2.0,6.0,69,0.00,,---,0.00,VWS V14.01,2013-08-02 18:39:00,
2013-08-02 11:44:00,66.6,55.7,29.95,WSW,257,3.0,6.0,68,0.00,,---,0.00,VWS V14.01,2013-08-02 18:44:00,
2013-08-02 11:50:00,67.1,56.2,29.95,WSW,257,1.0,6.0,68,0.00,,---,0.00,VWS V14.01,2013-08-02 18:50:00,
2013-08-02 11:54:00,67.6,55.8,29.95,WNW,296,3.0,6.0,66,0.00,,---,0.00,VWS V14.01,2013-08-02 18:54:00,
2013-08-02 12:00:00,68.1,56.3,29.95,WSW,253,5.0,6.0,66,0.00,,---,0.00,VWS V14.01,2013-08-02 19:00:00,
2013-08-02 12:05:00,68.8,56.6,29.94,NW,309,0.0,6.0,65,0.00,,---,0.00,VWS V14.01,2013-08-02 19:05:00,
2013-08-02 12:10:00,68.8,56.1,29.94,SW,234,0.0,5.0,64,0.00,,---,0.00,VWS V14.01,2013-08-02 19:10:00,
2013-08-02 12:15:00,68.8,57.0,29.94,West,266,2.0,7.0,66,0.00,,---,0.00,VWS V14.01,2013-08-02 19:15:00,
2013-08-02 12:20:00,68.9,56.7,29.94,WSW,257,0.0,7.0,65,0.00,,---,0.00,VWS V14.01,2013-08-02 19:20:00,
2013-08-02 12:25:00,69.4,57.1,29.94,West,275,0.0,7.0,65,0.00,,---,0.00,VWS V14.01,2013-08-02 19:25:00,
2013-08-02 12:30:00,69.9,57.2,29.94,West,280,3.0,7.0,64,0.00,,---,0.00,VWS V14.01,2013-08-02 19:30:00,
2013-08-02 12:35:00,70.3,57.1,29.94,WNW,290,0.0,0.0,63,0.00,,---,0.00,VWS V14.01,2013-08-02 19:35:00,
2013-08-02 12:40:00,70.4,57.2,29.94,NNW,336,5.0,8.0,63,0.00,,---,0.00,VWS V14.01,2013-08-02 19:40:00,
2013-08-02 12:45:00,70.3,57.1,29.94,WSW,253,0.0,8.0,63,0.00,,---,0.00,VWS V14.01,2013-08-02 19:45:00,
2013-08-02 12:50:00,70.9,56.3,29.93,WSW,238,0.0,8.0,60,0.00,,---,0.00,VWS V14.01,2013-08-02 19:50:00,
2013-08-02 12:55:00,71.3,57.2,29.93,WNW,302,0.0,8.0,61,0.00,,---,0.00,VWS V14.01,2013-08-02 19:55:00,
2013-08-02 13:00:00,71.5,56.9,29.93,West,264,0.0,8.0,60,0.00,,---,0.00,VWS V14.01,2013-08-02 20:00:00,
2013-08-02 13:05:00,72.1,56.0,29.93,SW,225,5.0,6.0,57,0.00,,---,0.00,VWS V14.01,2013-08-02 20:05:00,
2013-08-02 13:10:00,72.8,56.2,29.93,West,260,5.0,6.0,56,0.00,,---,0.00,VWS V14.01,2013-08-02 20:10:00,
2013-08-02 13:15:00,73.2,56.1,29.93,WNW,302,0.0,6.0,55,0.00,,---,0.00,VWS V14.01,2013-08-02 20:15:00,
2013-08-02 13:20:00,73.2,56.1,29.92,NW,323,3.0,7.0,55,0.00,,---,0.00,VWS V14.01,2013-08-02 20:20:00,
2013-08-02 13:25:00,73.9,56.2,29.92,West,263,0.0,7.0,54,0.00,,---,0.00,VWS V14.01,2013-08-02 20:25:00,
2013-08-02 13:30:00,74.2,56.5,29.92,WSW,244,3.0,7.0,54,0.00,,---,0.00,VWS V14.01,2013-08-02 20:30:00,
2013-08-02 13:35:00,72.7,56.1,29.93,SSW,199,7.0,7.0,56,0.00,,---,0.00,VWS V14.01,2013-08-02 20:35:00,
2013-08-02 13:40:00,71.6,56.5,29.93,SW,225,5.0,8.0,59,0.00,,---,0.00,VWS V14.01,2013-08-02 20:40:00,
2013-08-02 13:46:00,71.5,56.4,29.93,West,266,0.0,8.0,59,0.00,,---,0.00,VWS V14.01,2013-08-02 20:46:00,
2013-08-02 13:51:00,70.9,56.3,29.92,West,267,7.0,9.0,60,0.00,,---,0.00,VWS V14.01,2013-08-02 20:51:00,
2013-08-02 13:56:00,70.9,56.3,29.92,West,259,7.0,9.0,60,0.00,,---,0.00,VWS V14.01,2013-08-02 20:56:00,
2013-08-02 14:01:00,70.6,56.1,29.92,WSW,248,4.0,9.0,60,0.00,,---,0.00,VWS V14.01,2013-08-02 21:01:00,
2013-08-02 14:06:00,70.3,55.8,29.93,WSW,258,2.0,11.0,60,0.00,,---,0.00,VWS V14.01,2013-08-02 21:06:00,
2013-08-02 14:11:00,69.4,55.4,29.93,West,263,3.0,12.0,61,0.00,,---,0.00,VWS V14.01,2013-08-02 21:11:00,
2013-08-02 14:16:00,68.8,55.3,29.93,WSW,237,6.0,12.0,62,0.00,,---,0.00,VWS V14.01,2013-08-02 21:16:00,
2013-08-02 14:21:00,68.8,55.3,29.93,SW,221,9.0,12.0,62,0.00,,---,0.00,VWS V14.01,2013-08-02 21:21:00,
2013-08-02 14:26:00,67.4,55.2,29.93,WSW,254,7.0,12.0,65,0.00,,---,0.00,VWS V14.01,2013-08-02 21:26:00,
2013-08-02 14:31:00,67.4,55.2,29.93,West,263,2.0,12.0,65,0.00,,---,0.00,VWS V14.01,2013-08-02 21:31:00,
2013-08-02 14:36:00,67.9,55.7,29.93,SSW,193,2.0,6.0,65,0.00,,---,0.00,VWS V14.01,2013-08-02 21:36:00,
2013-08-02 14:41:00,68.8,55.7,29.93,NW,309,4.0,6.0,63,0.00,,---,0.00,VWS V14.01,2013-08-02 21:41:00,
2013-08-02 14:46:00,68.8,55.7,29.93,SW,218,0.0,9.0,63,0.00,,---,0.00,VWS V14.01,2013-08-02 21:46:00,
2013-08-02 14:51:00,68.4,55.8,29.93,WSW,247,6.0,9.0,64,0.00,,---,0.00,VWS V14.01,2013-08-02 21:51:00,
2013-08-02 14:57:00,68.8,55.3,29.93,SW,220,2.0,9.0,62,0.00,,---,0.00,VWS V14.01,2013-08-02 21:57:00,
2013-08-02 15:02:00,69.3,55.7,29.93,West,274,0.0,9.0,62,0.00,,---,0.00,VWS V14.01,2013-08-02 22:02:00,
2013-08-02 15:07:00,68.8,55.3,29.93,South,179,5.0,11.0,62,0.00,,---,0.00,VWS V14.01,2013-08-02 22:07:00,
2013-08-02 15:12:00,68.6,55.5,29.93,SW,223,5.0,11.0,63,0.00,,---,0.00,VWS V14.01,2013-08-02 22:12:00,
2013-08-02 15:17:00,68.8,55.7,29.93,West,259,6.0,11.0,63,0.00,,---,0.00,VWS V14.01,2013-08-02 22:17:00,
2013-08-02 15:22:00,68.9,55.4,29.92,SSW,209,3.0,11.0,62,0.00,,---,0.00,VWS V14.01,2013-08-02 22:22:00,
2013-08-02 15:27:00,67.8,55.2,29.92,SW,221,8.0,13.0,64,0.00,,---,0.00,VWS V14.01,2013-08-02 22:27:00,
2013-08-02 15:32:00,67.6,55.4,29.92,WNW,284,10.0,13.0,65,0.00,,---,0.00,VWS V14.01,2013-08-02 22:32:00,
2013-08-02 15:37:00,67.9,55.3,29.92,WSW,244,1.0,6.0,64,0.00,,---,0.00,VWS V14.01,2013-08-02 22:37:00,
2013-08-02 15:42:00,68.1,55.5,29.92,WSW,241,4.0,11.0,64,0.00,,---,0.00,VWS V14.01,2013-08-02 22:42:00,
2013-08-02 15:47:00,68.3,55.2,29.92,West,277,4.0,11.0,63,0.00,,---,0.00,VWS V14.01,2013-08-02 22:47:00,
2013-08-02 15:52:00,68.3,55.2,29.92,WSW,254,1.0,11.0,63,0.00,,---,0.00,VWS V14.01,2013-08-02 22:52:00,
2013-08-02 15:57:00,68.3,55.7,29.92,SSW,198,3.0,11.0,64,0.00,,---,0.00,VWS V14.01,2013-08-02 22:57:00,
2013-08-02 16:02:00,68.1,55.5,29.92,WNW,286,4.0,11.0,64,0.00,,---,0.00,VWS V14.01,2013-08-02 23:02:00,
2013-08-02 16:07:00,67.8,55.6,29.92,West,259,0.0,6.0,65,0.00,,---,0.00,VWS V14.01,2013-08-02 23:07:00,
2013-08-02 16:12:00,66.6,55.3,29.92,South,184,6.0,10.0,67,0.00,,---,0.00,VWS V14.01,2013-08-02 23:12:00,
2013-08-02 16:17:00,66.0,55.2,29.92,SSW,202,4.0,10.0,68,0.00,,---,0.00,VWS V14.01,2013-08-02 23:17:00,
2013-08-02 16:22:00,66.1,54.8,29.92,WSW,257,5.0,10.0,67,0.00,,---,0.00,VWS V14.01,2013-08-02 23:22:00,
2013-08-02 16:28:00,65.8,55.0,29.92,WSW,239,5.0,12.0,68,0.00,,---,0.00,VWS V14.01,2013-08-02 23:28:00,
2013-08-02 16:33:00,65.2,55.2,29.92,West,259,2.0,12.0,70,0.00,,---,0.00,VWS V14.01,2013-08-02 23:33:00,
2013-08-02 16:38:00,65.3,54.9,29.92,WSW,254,5.0,7.0,69,0.00,,---,0.00,VWS V14.01,2013-08-02 23:38:00,
2013-08-02 16:43:00,65.5,55.5,29.92,SW,233,6.0,9.0,70,0.00,,---,0.00,VWS V14.01,2013-08-02 23:43:00,
2013-08-02 16:48:00,65.6,54.8,29.92,WSW,252,5.0,9.0,68,0.00,,---,0.00,VWS V14.01,2013-08-02 23:48:00,
2013-08-02 16:53:00,65.6,54.8,29.92,West,281,0.0,11.0,68,0.00,,---,0.00,VWS V14.01,2013-08-02 23:53:00,
2013-08-02 16:58:00,65.2,55.2,29.92,West,276,0.0,11.0,70,0.00,,---,0.00,VWS V14.01,2013-08-02 23:58:00,
2013-08-02 17:03:00,64.7,55.1,29.92,SSE,161,0.0,11.0,71,0.00,,---,0.00,VWS V14.01,2013-08-03 00:03:00,
2013-08-02 17:08:00,64.2,55.0,29.92,WSW,254,3.0,8.0,72,0.00,,---,0.00,VWS V14.01,2013-08-03 00:08:00,
2013-08-02 17:13:00,63.2,54.8,29.92,West,265,9.0,12.0,74,0.00,,---,0.00,VWS V14.01,2013-08-03 00:13:00,
2013-08-02 17:18:00,62.9,54.5,29.92,NNW,327,5.0,12.0,74,0.00,,---,0.00,VWS V14.01,2013-08-03 00:18:00,
2013-08-02 17:23:00,62.6,54.2,29.92,SSW,193,1.0,12.0,74,0.00,,---,0.00,VWS V14.01,2013-08-03 00:23:00,
2013-08-02 17:28:00,62.4,54.4,29.92,West,281,2.0,12.0,75,0.00,,---,0.00,VWS V14.01,2013-08-03 00:28:00,
2013-08-02 17:33:00,62.6,54.6,29.92,WSW,242,0.0,12.0,75,0.00,,---,0.00,VWS V14.01,2013-08-03 00:33:00,
2013-08-02 17:38:00,62.4,54.0,29.92,WNW,286,8.0,8.0,74,0.00,,---,0.00,VWS V14.01,2013-08-03 00:38:00,
2013-08-02 17:43:00,61.8,54.2,29.92,SSW,209,5.0,11.0,76,0.00,,---,0.00,VWS V14.01,2013-08-03 00:43:00,
2013-08-02 17:48:00,61.2,54.3,29.92,North,5,3.0,11.0,78,0.00,,---,0.00,VWS V14.01,2013-08-03 00:48:00,
2013-08-02 17:53:00,60.9,54.0,29.92,SW,226,0.0,11.0,78,0.00,,---,0.00,VWS V14.01,2013-08-03 00:53:00,
2013-08-02 17:58:00,60.7,53.8,29.92,SW,229,0.0,11.0,78,0.00,,---,0.00,VWS V14.01,2013-08-03 00:58:00,
2013-08-02 18:03:00,60.5,54.0,29.92,South,184,3.0,11.0,79,0.00,,---,0.00,VWS V14.01,2013-08-03 01:03:00,
2013-08-02 18:08:00,60.2,53.7,29.92,WNW,288,0.0,6.0,79,0.00,,---,0.00,VWS V14.01,2013-08-03 01:08:00,
2013-08-02 18:13:00,60.1,53.9,29.92,SW,215,2.0,6.0,80,0.00,,---,0.00,VWS V14.01,2013-08-03 01:13:00,
2013-08-02 18:18:00,59.8,53.6,29.92,West,263,0.0,6.0,80,0.00,,---,0.00,VWS V14.01,2013-08-03 01:18:00,
2013-08-02 18:23:00,59.6,53.8,29.92,West,259,0.0,6.0,81,0.00,,---,0.00,VWS V14.01,2013-08-03 01:23:00,
2013-08-02 18:28:00,59.6,53.8,29.92,West,269,0.0,6.0,81,0.00,,---,0.00,VWS V14.01,2013-08-03 01:28:00,
2013-08-02 18:33:00,59.5,53.7,29.92,SW,220,0.0,6.0,81,0.00,,---,0.00,VWS V14.01,2013-08-03 01:33:00,
2013-08-02 18:39:00,59.2,53.7,29.92,NW,323,5.0,10.0,82,0.00,,---,0.00,VWS V14.01,2013-08-03 01:39:00,
2013-08-02 18:44:00,59.0,53.5,29.92,WNW,288,0.0,10.0,82,0.00,,---,0.00,VWS V14.01,2013-08-03 01:44:00,
2013-08-02 18:49:00,58.9,53.8,29.92,West,268,6.0,10.0,83,0.00,,---,0.00,VWS V14.01,2013-08-03 01:49:00,
2013-08-02 18:54:00,58.9,53.8,29.92,SW,218,0.0,10.0,83,0.00,,---,0.00,VWS V14.01,2013-08-03 01:54:00,
2013-08-02 18:59:00,58.7,53.6,29.92,West,281,0.0,10.0,83,0.00,,---,0.00,VWS V14.01,2013-08-03 01:59:00,
2013-08-02 19:04:00,58.7,53.6,29.92,WNW,288,0.0,10.0,83,0.00,,---,0.00,VWS V14.01,2013-08-03 02:04:00,
2013-08-02 19:09:00,58.6,53.5,29.92,WSW,245,0.0,5.0,83,0.00,,---,0.00,VWS V14.01,2013-08-03 02:09:00,
2013-08-02 19:14:00,58.1,53.3,29.92,WSW,254,3.0,5.0,84,0.00,,---,0.00,VWS V14.01,2013-08-03 02:14:00,
2013-08-02 19:19:00,57.8,53.3,29.92,West,281,0.0,6.0,85,0.00,,---,0.00,VWS V14.01,2013-08-03 02:19:00,
2013-08-02 19:24:00,57.5,53.3,29.92,WSW,244,0.0,6.0,86,0.00,,---,0.00,VWS V14.01,2013-08-03 02:24:00,
2013-08-02 19:29:00,57.3,53.2,29.92,West,259,0.0,6.0,86,0.00,,---,0.00,VWS V14.01,2013-08-03 02:29:00,
2013-08-02 19:34:00,57.2,53.1,29.92,WNW,286,0.0,6.0,86,0.00,,---,0.00,VWS V14.01,2013-08-03 02:34:00,
2013-08-02 19:39:00,57.0,52.9,29.92,WNW,300,0.0,4.0,86,0.00,,---,0.00,VWS V14.01,2013-08-03 02:39:00,
2013-08-02 19:44:00,57.0,53.2,29.92,WNW,293,0.0,4.0,87,0.00,,---,0.00,VWS V14.01,2013-08-03 02:44:00,
2013-08-02 19:49:00,56.9,53.1,29.92,WNW,283,0.0,4.0,87,0.00,,---,0.00,VWS V14.01,2013-08-03 02:49:00,
2013-08-02 19:54:00,56.6,52.8,29.92,WSW,254,0.0,5.0,87,0.00,,---,0.00,VWS V14.01,2013-08-03 02:54:00,
2013-08-02 19:59:00,56.5,53.0,29.92,WSW,238,0.0,5.0,88,0.00,,---,0.00,VWS V14.01,2013-08-03 02:59:00,
2013-08-02 20:04:00,56.3,52.8,29.93,WSW,239,0.0,5.0,88,0.00,,---,0.00,VWS V14.01,2013-08-03 03:04:00,
2013-08-02 20:09:00,56.2,53.0,29.93,WSW,242,0.0,3.0,89,0.00,,---,0.00,VWS V14.01,2013-08-03 03:09:00,
2013-08-02 20:14:00,56.2,53.0,29.93,WSW,255,0.0,3.0,89,0.00,,---,0.00,VWS V14.01,2013-08-03 03:14:00,
2013-08-02 20:19:00,56.0,52.8,29.93,SW,235,0.0,4.0,89,0.00,,---,0.00,VWS V14.01,2013-08-03 03:19:00,
2013-08-02 20:24:00,56.0,52.8,29.93,WSW,253,2.0,4.0,89,0.00,,---,0.00,VWS V14.01,2013-08-03 03:24:00,
2013-08-02 20:30:00,55.9,52.7,29.93,SW,222,0.0,4.0,89,0.00,,---,0.00,VWS V14.01,2013-08-03 03:30:00,
2013-08-02 20:35:00,55.9,52.7,29.93,SW,222,0.0,4.0,89,0.00,,---,0.00,VWS V14.01,2013-08-03 03:35:00,
2013-08-02 20:40:00,55.9,52.7,29.93,SW,219,3.0,3.0,89,0.00,,---,0.00,VWS V14.01,2013-08-03 03:40:00,
2013-08-02 20:45:00,55.9,52.7,29.93,NE,49,0.0,4.0,89,0.00,,---,0.00,VWS V14.01,2013-08-03 03:45:00,
2013-08-02 20:50:00,55.9,52.7,29.94,NE,38,0.0,4.0,89,0.00,,---,0.00,VWS V14.01,2013-08-03 03:50:00,
2013-08-02 20:55:00,55.7,52.8,29.94,SW,226,2.0,4.0,90,0.00,,---,0.00,VWS V14.01,2013-08-03 03:55:00,
2013-08-02 21:00:00,55.6,52.7,29.94,WNW,286,0.0,5.0,90,0.00,,---,0.00,VWS V14.01,2013-08-03 04:00:00,
2013-08-02 21:01:00,55.6,52.7,29.94,WNW,286,0.0,5.0,90,0.00,,---,0.00,VWS V14.01,2013-08-03 04:01:00,
2013-08-02 21:06:00,55.6,52.7,29.94,SSE,161,0.0,0.0,90,0.00,,---,0.00,VWS V14.01,2013-08-03 04:06:00,
2013-08-02 21:11:00,55.6,53.0,29.94,SSE,161,0.0,0.0,91,0.00,,---,0.00,VWS V14.01,2013-08-03 04:11:00,
2013-08-02 21:16:00,55.4,52.8,29.94,NE,40,0.0,0.0,91,0.00,,---,0.00,VWS V14.01,2013-08-03 04:16:00,
2013-08-02 21:22:00,55.4,52.8,29.94,SW,220,2.0,4.0,91,0.00,,---,0.00,VWS V14.01,2013-08-03 04:22:00,
2013-08-02 21:27:00,55.4,52.8,29.94,WSW,239,0.0,4.0,91,0.00,,---,0.00,VWS V14.01,2013-08-03 04:27:00,
2013-08-02 21:32:00,55.4,52.8,29.94,West,265,0.0,4.0,91,0.00,,---,0.00,VWS V14.01,2013-08-03 04:32:00,
2013-08-02 21:37:00,55.6,53.0,29.94,South,180,0.0,0.0,91,0.00,,---,0.00,VWS V14.01,2013-08-03 04:37:00,
2013-08-02 21:42:00,55.6,53.0,29.94,South,184,0.0,0.0,91,0.00,,---,0.00,VWS V14.01,2013-08-03 04:42:00,
2013-08-02 21:47:00,55.6,53.0,29.94,SW,228,0.0,1.0,91,0.00,,---,0.00,VWS V14.01,2013-08-03 04:47:00,
2013-08-02 21:52:00,55.6,53.0,29.95,SSE,168,0.0,3.0,91,0.00,,---,0.00,VWS V14.01,2013-08-03 04:52:00,
2013-08-02 21:57:00,55.4,52.8,29.95,South,174,0.0,3.0,91,0.00,,---,0.00,VWS V14.01,2013-08-03 04:57:00,
2013-08-02 22:02:00,55.6,53.0,29.95,South,174,0.0,3.0,91,0.00,,---,0.00,VWS V14.01,2013-08-03 05:02:00,
2013-08-02 22:07:00,55.6,53.0,29.95,South,175,0.0,0.0,91,0.00,,---,0.00,VWS V14.01,2013-08-03 05:07:00,
2013-08-02 22:12:00,55.6,53.0,29.95,South,175,0.0,0.0,91,0.00,,---,0.00,VWS V14.01,2013-08-03 05:12:00,
2013-08-02 22:17:00,55.7,53.1,29.95,South,175,0.0,0.0,91,0.00,,---,0.00,VWS V14.01,2013-08-03 05:17:00,
2013-08-02 22:22:00,55.7,53.1,29.95,South,175,0.0,0.0,91,0.00,,---,0.00,VWS V14.01,2013-08-03 05:22:00,
2013-08-02 22:27:00,55.7,53.1,29.95,South,173,0.0,0.0,91,0.00,,---,0.00,VWS V14.01,2013-08-03 05:27:00,
2013-08-02 22:32:00,55.7,53.1,29.95,SSW,198,0.0,4.0,91,0.00,,---,0.00,VWS V14.01,2013-08-03 05:32:00,
2013-08-02 22:37:00,55.7,53.1,29.95,SSW,198,0.0,0.0,91,0.00,,---,0.00,VWS V14.01,2013-08-03 05:37:00,
2013-08-02 22:42:00,55.7,53.1,29.95,SSW,198,0.0,0.0,91,0.00,,---,0.00,VWS V14.01,2013-08-03 05:42:00,
2013-08-02 22:47:00,55.7,53.1,29.95,SSW,198,0.0,0.0,91,0.00,,---,0.00,VWS V14.01,2013-08-03 05:47:00,
2013-08-02 22:52:00,55.6,53.0,29.95,South,172,0.0,4.0,91,0.00,,---,0.00,VWS V14.01,2013-08-03 05:52:00,
2013-08-02 22:57:00,55.6,53.0,29.95,South,180,0.0,4.0,91,0.00,,---,0.00,VWS V14.01,2013-08-03 05:57:00,
2013-08-02 23:02:00,55.6,53.0,29.95,WNW,289,0.0,4.0,91,0.00,,---,0.00,VWS V14.01,2013-08-03 06:02:00,
2013-08-02 23:07:00,55.6,53.0,29.95,WNW,289,0.0,0.0,91,0.00,,---,0.00,VWS V14.01,2013-08-03 06:07:00,
2013-08-02 23:12:00,55.6,53.0,29.95,WNW,289,0.0,0.0,91,0.00,,---,0.00,VWS V14.01,2013-08-03 06:12:00,
2013-08-02 23:17:00,55.7,53.1,29.95,WNW,289,0.0,0.0,91,0.00,,---,0.00,VWS V14.01,2013-08-03 06:17:00,
2013-08-02 23:22:00,55.6,53.0,29.95,WSW,248,0.0,6.0,91,0.00,,---,0.00,VWS V14.01,2013-08-03 06:22:00,
2013-08-02 23:28:00,55.4,52.8,29.95,SE,126,0.0,6.0,91,0.00,,---,0.00,VWS V14.01,2013-08-03 06:28:00,
2013-08-02 23:33:00,55.4,52.8,29.95,South,181,0.0,6.0,91,0.00,,---,0.00,VWS V14.01,2013-08-03 06:33:00,
2013-08-02 23:38:00,55.4,52.8,29.94,SE,130,0.0,0.0,91,0.00,,---,0.00,VWS V14.01,2013-08-03 06:38:00,
2013-08-02 23:43:00,55.6,53.0,29.94,SE,130,0.0,0.0,91,0.00,,---,0.00,VWS V14.01,2013-08-03 06:43:00,
2013-08-02 23:48:00,55.6,53.0,29.94,SE,130,0.0,0.0,91,0.00,,---,0.00,VWS V14.01,2013-08-03 06:48:00,
2013-08-02 23:53:00,55.6,53.0,29.94,SW,217,0.0,3.0,91,0.00,,---,0.00,VWS V14.01,2013-08-03 06:53:00,
2013-08-02 23:58:00,55.6,53.0,29.94,SW,217,0.0,3.0,91,0.00,,---,0.00,VWS V14.01,2013-08-03 06:58:00,